Time;durP1;ratioP1;P1;durP2;ratioP2;P2;SDS_P1;SDS_P2;PMS_P1;PMS_P2;Temp;Humidity;BMP_temperature;BMP_pressure;BME280_temperature;BME280_humidity;BME280_pressure;Samples;Min_cycle;Max_cycle;Signal;HPM_P1;HPM_P2
2022/08/17 00:00:19;;;;;;;;;20.25;18.50;;;;;20.87;100.00;100285.44;5107382;27;47534;-89
2022/08/17 00:03:16;;;;;;;;;19.00;19.00;;;;;21.12;100.00;100299.31;5107690;27;45118;-90
2022/08/17 00:05:50;;;;;;;;;19.50;18.50;;;;;21.19;100.00;100293.88;5107206;27;45335;-87
2022/08/17 00:08:19;;;;;;;;;15.75;15.75;;;;;20.92;100.00;100247.09;5107434;27;45174;-90
2022/08/17 00:10:46;;;;;;;;;21.50;18.25;;;;;21.04;100.00;100279.84;5107147;27;47730;-87
2022/08/17 00:13:36;;;;;;;;;20.75;19.75;;;;;20.94;100.00;100246.19;5092779;27;45076;-87
2022/08/17 00:16:09;;;;;;;;;17.25;17.25;;;;;20.96;100.00;100288.88;5107277;27;45114;-86
2022/08/17 00:18:34;;;;;;;;;18.25;18.00;;;;;21.05;100.00;100262.91;5091468;27;45018;-89
2022/08/17 00:21:03;;;;;;;;;24.25;20.50;;;;;21.29;100.00;100287.47;5091358;28;45926;-87
2022/08/17 00:23:28;;;;;;;;;16.00;15.75;;;;;20.94;100.00;100288.03;5091875;27;45125;-89
2022/08/17 00:25:53;;;;;;;;;18.00;17.75;;;;;20.61;100.00;100243.09;5090385;27;45116;-89
2022/08/17 00:28:20;;;;;;;;;16.50;16.50;;;;;20.87;100.00;100289.91;5095312;27;45021;-88
2022/08/17 00:30:47;;;;;;;;;18.75;18.50;;;;;20.91;100.00;100258.69;5095152;27;45154;-88
2022/08/17 00:33:17;;;;;;;;;18.25;18.25;;;;;21.08;100.00;100270.88;5095556;27;45191;-91
2022/08/17 00:35:44;;;;;;;;;19.50;18.50;;;;;20.83;100.00;100250.78;5095387;27;45150;-91
2022/08/17 00:38:10;;;;;;;;;17.25;16.50;;;;;20.91;100.00;100278.28;5095585;28;45271;-88
2022/08/17 00:40:40;;;;;;;;;16.50;16.50;;;;;20.82;100.00;100246.34;5093798;27;45278;-88
2022/08/17 00:43:16;;;;;;;;;20.25;19.00;;;;;20.91;100.00;100250.69;5110129;27;47025;-90
2022/08/17 00:45:42;;;;;;;;;19.00;18.50;;;;;20.75;100.00;100218.88;5094930;27;45044;-87
2022/08/17 00:48:08;;;;;;;;;18.75;18.00;;;;;21.05;100.00;100272.72;5095177;28;44942;-88
2022/08/17 00:50:34;;;;;;;;;18.25;17.25;;;;;20.85;100.00;100247.19;5094739;27;45369;-88
2022/08/17 00:53:01;;;;;;;;;18.50;17.75;;;;;20.89;100.00;100258.72;5094898;27;45298;-90
2022/08/17 00:55:26;;;;;;;;;19.25;18.25;;;;;20.79;100.00;100246.41;5094021;28;45348;-90
2022/08/17 00:57:57;;;;;;;;;18.75;17.75;;;;;20.97;100.00;100279.97;5094857;27;45237;-87
2022/08/17 01:00:39;;;;;;;;;20.50;19.00;;;;;20.99;100.00;100275.50;5094830;27;45404;-90
2022/08/17 01:03:09;;;;;;;;;22.00;20.50;;;;;20.95;100.00;100271.09;5093639;27;45541;-90
2022/08/17 01:05:37;;;;;;;;;21.75;19.25;;;;;20.80;100.00;100240.16;5095181;28;44929;-90
2022/08/17 01:08:05;;;;;;;;;19.50;18.00;;;;;20.54;100.00;100233.44;5094555;27;44910;-86
2022/08/17 01:10:48;;;;;;;;;18.50;16.50;;;;;20.62;100.00;100252.00;5093043;28;45333;-87
2022/08/17 01:13:14;;;;;;;;;19.00;18.50;;;;;20.70;100.00;100274.13;5094927;27;45108;-90
2022/08/17 01:15:47;;;;;;;;;25.75;24.75;;;;;20.73;100.00;100276.75;5093373;28;44870;-87
2022/08/17 01:18:16;;;;;;;;;18.50;17.75;;;;;20.75;100.00;100277.63;5093234;27;45152;-88
2022/08/17 01:20:47;;;;;;;;;20.75;19.25;;;;;20.69;100.00;100244.75;5094108;28;45915;-89
2022/08/17 01:23:12;;;;;;;;;18.25;17.50;;;;;20.74;100.00;100248.25;5110282;27;45158;-89
2022/08/17 01:25:39;;;;;;;;;20.50;19.75;;;;;20.77;100.00;100267.78;5108878;27;45084;-89
2022/08/17 01:28:04;;;;;;;;;18.75;18.75;;;;;20.73;100.00;100258.03;5094724;27;45070;-89
2022/08/17 01:30:30;;;;;;;;;15.75;15.75;;;;;20.58;100.00;100240.47;5094595;27;45428;-88
2022/08/17 01:32:55;;;;;;;;;21.00;18.75;;;;;20.74;100.00;100275.88;5094578;27;45047;-87
2022/08/17 01:35:21;;;;;;;;;17.75;17.75;;;;;20.64;100.00;100273.31;5108799;27;45005;-88
2022/08/17 01:37:46;;;;;;;;;17.75;17.25;;;;;20.64;100.00;100274.22;5109483;27;45128;-87
2022/08/17 01:40:34;;;;;;;;;20.75;18.00;;;;;20.62;100.00;100276.03;5093362;27;45420;-89
2022/08/17 01:43:14;;;;;;;;;19.25;18.25;;;;;20.61;100.00;100276.94;5094072;27;45653;-90
2022/08/17 01:45:45;;;;;;;;;20.25;19.25;;;;;20.50;100.00;100258.41;5093004;28;45045;-90
2022/08/17 01:48:11;;;;;;;;;18.00;16.50;;;;;20.50;100.00;100261.06;5127189;27;45191;-85
2022/08/17 01:50:40;;;;;;;;;21.75;19.50;;;;;20.44;100.00;100261.09;5094498;27;45569;-89
2022/08/17 01:53:10;;;;;;;;;20.75;19.25;;;;;20.42;100.00;100265.59;5094373;27;45170;-90
2022/08/17 01:55:46;;;;;;;;;20.25;20.25;;;;;20.48;100.00;100281.53;5093571;27;45032;-90
2022/08/17 01:58:11;;;;;;;;;21.00;19.00;;;;;20.22;100.00;100244.50;5094067;27;44936;-91
2022/08/17 02:00:39;;;;;;;;;20.00;17.50;;;;;20.11;100.00;100235.75;5093606;28;45955;-90
2022/08/17 02:03:04;;;;;;;;;17.50;17.25;;;;;20.19;100.00;100263.19;5109571;27;45551;-89
2022/08/17 02:05:30;;;;;;;;;20.00;19.25;;;;;20.07;100.00;100245.56;5110175;27;45008;-87
2022/08/17 02:07:56;;;;;;;;;19.50;18.50;;;;;20.07;100.00;100240.22;5093689;27;45021;-89
2022/08/17 02:10:21;;;;;;;;;21.00;19.75;;;;;20.11;100.00;100267.78;5109428;27;47248;-87
2022/08/17 02:12:48;;;;;;;;;21.50;21.50;;;;;20.03;100.00;100257.16;5094177;27;45163;-87
2022/08/17 02:15:14;;;;;;;;;18.50;18.50;;;;;20.33;100.00;100311.06;5093628;27;45377;-90
2022/08/17 02:17:40;;;;;;;;;18.25;18.25;;;;;20.16;100.00;100286.41;5092168;28;45325;-90
2022/08/17 02:20:07;;;;;;;;;18.25;17.25;;;;;20.26;100.00;100298.72;5093310;28;46318;-87
2022/08/17 02:22:35;;;;;;;;;17.75;17.50;;;;;20.06;100.00;100261.59;5092988;27;45470;-91
2022/08/17 02:25:01;;;;;;;;;18.75;18.50;;;;;20.19;100.00;100287.22;5092197;28;45009;-88
2022/08/17 02:27:26;;;;;;;;;23.50;21.25;;;;;20.12;100.00;100282.88;5091988;27;45102;-89
2022/08/17 02:29:52;;;;;;;;;19.25;16.50;;;;;20.08;100.00;100273.13;5093411;27;45162;-89
2022/08/17 02:32:21;;;;;;;;;17.75;17.75;;;;;20.09;100.00;100285.56;5108380;27;45245;-90
2022/08/17 02:34:47;;;;;;;;;18.25;18.00;;;;;20.03;100.00;100273.19;5094032;27;45012;-88
2022/08/17 02:37:16;;;;;;;;;18.25;17.25;;;;;20.12;100.00;100306.00;5093365;27;45090;-89
2022/08/17 02:39:41;;;;;;;;;17.75;17.75;;;;;19.94;100.00;100270.63;5092209;28;46590;-90
2022/08/17 02:42:07;;;;;;;;;19.00;17.50;;;;;20.06;100.00;100297.16;5091419;28;45203;-88
2022/08/17 02:44:32;;;;;;;;;17.25;17.00;;;;;20.18;100.00;100314.81;5094069;27;45108;-90
2022/08/17 02:46:57;;;;;;;;;22.25;21.25;;;;;19.90;100.00;100274.25;5093633;27;45062;-89
2022/08/17 02:49:23;;;;;;;;;20.00;19.50;;;;;19.94;100.00;100275.94;5092737;27;45196;-89
2022/08/17 02:51:49;;;;;;;;;22.75;21.75;;;;;20.00;100.00;100288.31;5091823;28;45010;-89
2022/08/17 02:54:14;;;;;;;;;22.75;21.75;;;;;20.15;100.00;100311.28;5093266;27;44925;-90
2022/08/17 02:56:39;;;;;;;;;21.50;18.25;;;;;20.03;100.00;100285.63;5090417;28;45222;-90
2022/08/17 02:59:05;;;;;;;;;22.25;20.50;;;;;20.01;100.00;100277.66;5093242;27;45092;-90
2022/08/17 03:01:30;;;;;;;;;19.50;18.50;;;;;20.07;100.00;100274.91;5093115;27;44982;-90
2022/08/17 03:03:56;;;;;;;;;21.25;18.00;;;;;19.96;100.00;100241.28;5109276;27;45350;-90
2022/08/17 03:06:21;;;;;;;;;23.50;22.50;;;;;20.07;100.00;100260.69;5092286;27;45221;-88
2022/08/17 03:08:47;;;;;;;;;18.75;17.75;;;;;20.02;100.00;100251.88;5093073;27;45788;-90
2022/08/17 03:11:12;;;;;;;;;21.00;20.00;;;;;20.10;100.00;100274.91;5107503;27;45213;-90
2022/08/17 03:13:38;;;;;;;;;22.50;21.75;;;;;19.99;100.00;100255.44;5092829;27;44961;-90
2022/08/17 03:16:03;;;;;;;;;23.00;23.00;;;;;19.93;100.00;100241.31;5092384;28;45063;-90
2022/08/17 03:18:28;;;;;;;;;21.75;20.75;;;;;19.86;100.00;100227.16;5092869;28;45415;-89
2022/08/17 03:20:57;;;;;;;;;22.50;19.75;;;;;20.14;100.00;100274.84;5092367;27;45012;-89
2022/08/17 03:23:24;;;;;;;;;19.75;19.50;;;;;20.17;100.00;100267.69;5093699;27;45010;-89
2022/08/17 03:25:49;;;;;;;;;22.25;20.00;;;;;20.09;100.00;100243.75;5091173;28;45321;-89
2022/08/17 03:28:15;;;;;;;;;18.75;16.75;;;;;20.13;100.00;100236.59;5092458;27;46788;-88
2022/08/17 03:30:41;;;;;;;;;18.75;18.25;;;;;20.16;100.00;100243.69;5091402;27;45565;-88
2022/08/17 03:33:11;;;;;;;;;21.00;20.75;;;;;20.24;100.00;100249.81;5091665;28;45292;-92
2022/08/17 03:35:39;;;;;;;;;23.00;22.00;;;;;20.08;100.00;100217.97;5090707;28;44892;-91
2022/08/17 03:38:05;;;;;;;;;22.25;21.25;;;;;20.13;100.00;100223.25;5125432;27;47055;-90
2022/08/17 03:40:30;;;;;;;;;24.75;22.00;;;;;20.32;100.00;100251.47;5090442;27;45240;-89
2022/08/17 03:42:56;;;;;;;;;18.00;17.25;;;;;20.20;100.00;100216.97;5092732;27;45038;-88
2022/08/17 03:56:41;;;;;;;;;20.50;18.00;;;;;20.35;100.00;100253.25;5090791;28;45063;-89
2022/08/17 03:59:06;;;;;;;;;14.75;14.25;;;;;20.36;100.00;100260.34;5092281;27;45730;-88
2022/08/17 04:01:31;;;;;;;;;21.00;20.25;;;;;20.36;100.00;100271.00;5087841;27;45118;-89
2022/08/17 04:03:57;;;;;;;;;19.25;18.25;;;;;20.32;100.00;100255.94;5091770;28;45245;-89
2022/08/17 04:06:22;;;;;;;;;19.25;18.00;;;;;20.39;100.00;100265.59;5107792;27;45071;-90
2022/08/17 04:08:47;;;;;;;;;16.25;15.00;;;;;20.40;100.00;100269.19;5092057;27;47027;-88
2022/08/17 04:11:13;;;;;;;;;19.00;18.75;;;;;20.37;100.00;100264.75;5104826;27;46592;-88
2022/08/17 04:13:38;;;;;;;;;19.25;19.25;;;;;20.39;100.00;100281.63;5092148;27;44851;-88
2022/08/17 04:16:03;;;;;;;;;20.75;18.50;;;;;20.39;100.00;100273.63;5091727;27;48617;-90
2022/08/17 04:18:29;;;;;;;;;15.25;13.25;;;;;20.43;100.00;100274.47;5092015;27;45146;-90
2022/08/17 04:20:54;;;;;;;;;22.00;19.50;;;;;20.48;100.00;100289.56;5107330;27;45161;-89
2022/08/17 04:23:20;;;;;;;;;19.75;18.75;;;;;20.39;100.00;100268.28;5092465;27;44972;-91
2022/08/17 04:25:49;;;;;;;;;16.75;16.75;;;;;20.50;100.00;100287.75;5091131;27;44952;-88
2022/08/17 04:28:16;;;;;;;;;19.00;16.50;;;;;20.61;100.00;100312.53;5090115;27;46960;-89
2022/08/17 04:30:43;;;;;;;;;18.00;17.50;;;;;20.60;100.00;100313.44;5091738;27;45077;-90
2022/08/17 04:33:18;;;;;;;;;15.50;15.00;;;;;20.65;100.00;100312.50;5092017;27;45050;-88
2022/08/17 04:35:50;;;;;;;;;21.25;19.00;;;;;20.55;100.00;100293.03;5091573;27;45112;-88
2022/08/17 04:38:21;;;;;;;;;20.00;18.00;;;;;20.52;100.00;100288.63;5089991;27;47313;-90
2022/08/17 04:43:32;;;;;;;;;19.00;18.00;;;;;20.54;100.00;100291.25;5091493;28;44922;-88
2022/08/17 04:46:00;;;;;;;;;16.25;16.25;;;;;20.46;100.00;100277.13;5091725;27;44938;-91
2022/08/17 04:48:49;;;;;;;;;18.50;17.50;;;;;20.47;100.00;100258.44;5107330;27;47715;-89
2022/08/17 04:51:26;;;;;;;;;20.75;19.50;;;;;20.48;100.00;100264.66;5090143;28;45085;-90
2022/08/17 04:53:55;;;;;;;;;18.25;17.75;;;;;20.57;100.00;100277.88;5091605;27;45013;-89
2022/08/17 04:56:22;;;;;;;;;21.00;19.25;;;;;20.56;100.00;100279.66;5088588;28;45285;-88
2022/08/17 04:58:50;;;;;;;;;18.75;18.00;;;;;20.32;100.00;100240.81;5089923;27;45916;-90
2022/08/17 05:01:17;;;;;;;;;19.50;18.00;;;;;20.47;100.00;100263.78;5089422;28;45232;-89
2022/08/17 05:03:43;;;;;;;;;23.00;21.00;;;;;20.51;100.00;100249.47;5091919;27;45214;-90
2022/08/17 05:06:08;;;;;;;;;20.50;19.25;;;;;20.49;100.00;100261.97;5106809;27;44998;-89
2022/08/17 05:08:35;;;;;;;;;17.50;16.25;;;;;20.30;100.00;100236.41;5091633;27;45350;-88
2022/08/17 05:11:00;;;;;;;;;24.00;20.25;;;;;20.51;100.00;100276.19;5106044;27;45074;-90
2022/08/17 05:13:28;;;;;;;;;17.50;17.50;;;;;20.17;100.00;100227.66;5095381;27;45027;-90
2022/08/17 05:15:59;;;;;;;;;16.50;16.25;;;;;20.32;100.00;100255.94;5092013;27;45015;-90
2022/08/17 05:18:26;;;;;;;;;18.00;17.75;;;;;20.45;100.00;100262.88;5110837;27;47739;-90
2022/08/17 05:20:52;;;;;;;;;22.00;20.00;;;;;20.40;100.00;100251.38;5094455;27;45042;-87
2022/08/17 05:23:19;;;;;;;;;19.50;18.75;;;;;20.47;100.00;100260.22;5094569;27;44961;-87
2022/08/17 05:25:49;;;;;;;;;18.25;17.00;;;;;20.46;100.00;100256.63;5091423;27;45308;-90
2022/08/17 05:28:17;;;;;;;;;19.75;19.75;;;;;20.35;100.00;100242.56;5093195;27;47491;-88
2022/08/17 05:30:44;;;;;;;;;18.00;17.25;;;;;20.48;100.00;100262.84;5094287;28;45583;-89
2022/08/17 05:33:15;;;;;;;;;25.50;22.75;;;;;20.39;100.00;100243.38;5094941;28;44995;-89
2022/08/17 05:35:45;;;;;;;;;21.25;21.00;;;;;20.34;100.00;100238.09;5093862;28;45548;-90
2022/08/17 05:38:12;;;;;;;;;23.00;21.50;;;;;20.39;100.00;100243.38;5094436;27;46008;-89
2022/08/17 05:40:37;;;;;;;;;21.25;21.00;;;;;20.42;100.00;100249.56;5092872;28;45565;-87
2022/08/17 05:43:07;;;;;;;;;22.50;21.25;;;;;20.42;100.00;100252.25;5092909;28;45043;-86
2022/08/17 05:45:36;;;;;;;;;18.50;18.50;;;;;20.30;100.00;100223.94;5108126;27;45137;-89
2022/08/17 05:48:02;;;;;;;;;21.25;20.25;;;;;20.41;100.00;100239.81;5092738;28;46328;-88
2022/08/17 05:50:37;;;;;;;;;25.75;22.75;;;;;20.43;100.00;100240.66;5093769;27;45027;-86
2022/08/17 05:53:14;;;;;;;;;22.00;19.50;;;;;20.44;100.00;100239.72;5110154;27;45048;-89
2022/08/17 05:55:57;;;;;;;;;23.50;21.75;;;;;20.62;100.00;100252.00;5093740;27;44933;-87
2022/08/17 05:58:44;;;;;;;;;23.00;23.00;;;;;20.57;100.00;100237.81;5093854;28;45418;-89
2022/08/17 06:01:38;;;;;;;;;26.50;25.50;;;;;20.74;100.00;100258.94;5093657;27;45184;-89
2022/08/17 06:04:06;;;;;;;;;25.50;23.50;;;;;20.79;100.00;100260.66;5094287;27;45058;-89
2022/08/17 06:06:54;;;;;;;;;27.50;26.25;;;;;20.84;100.00;100272.16;5093645;27;45184;-86
2022/08/17 06:09:38;;;;;;;;;22.50;22.50;;;;;20.92;100.00;100279.16;5093865;27;45333;-88
2022/08/17 06:12:26;;;;;;;;;26.00;24.75;;;;;20.97;100.00;100286.19;5107660;27;45298;-89
2022/08/17 06:14:57;;;;;;;;;25.75;23.50;;;;;21.00;100.00;100291.50;5093839;28;45070;-90
2022/08/17 06:17:25;;;;;;;;;28.75;26.75;;;;;21.04;100.00;100295.00;5093966;27;45024;-89
2022/08/17 06:20:10;;;;;;;;;26.75;26.25;;;;;20.86;100.00;100261.44;5093156;27;46115;-88
2022/08/17 06:22:44;;;;;;;;;23.00;22.25;;;;;20.99;100.00;100291.53;5108623;27;45306;-89
2022/08/17 06:25:17;;;;;;;;;27.50;26.25;;;;;21.01;100.00;100303.06;5092383;27;45095;-89
2022/08/17 06:27:48;;;;;;;;;26.00;26.00;;;;;21.12;100.00;100317.13;5109096;27;44993;-91
2022/08/17 06:30:24;;;;;;;;;29.00;27.00;;;;;21.16;100.00;100323.31;5109026;27;47751;-87
2022/08/17 06:32:50;;;;;;;;;26.25;26.00;;;;;21.19;100.00;100325.97;5093435;27;45518;-90
2022/08/17 06:36:01;;;;;;;;;27.00;25.50;;;;;21.21;100.00;100324.13;5092774;27;45140;-91
2022/08/17 06:39:19;;;;;;;;;23.25;22.50;;;;;21.23;100.00;100320.53;5092302;28;45252;-89
2022/08/17 06:42:18;;;;;;;;;24.75;23.25;;;;;20.97;100.00;100277.28;5081903;27;46001;-86
2022/08/17 06:44:52;;;;;;;;;24.00;23.00;;;;;21.03;100.00;100294.13;5093258;27;45174;-90
2022/08/17 06:47:30;;;;;;;;;25.50;25.25;;;;;21.25;100.00;100331.19;5108720;27;45146;-89
2022/08/17 06:50:20;;;;;;;;;25.75;24.75;;;;;21.26;100.00;100333.84;5093141;27;45178;-90
2022/08/17 06:52:56;;;;;;;;;26.00;24.25;;;;;21.21;100.00;100324.13;5093080;27;45191;-90
2022/08/17 06:55:34;;;;;;;;;26.00;25.25;;;;;21.01;100.00;100289.69;5088322;27;45137;-89
2022/08/17 06:58:06;;;;;;;;;24.50;24.00;;;;;21.24;100.00;100334.78;5092367;27;45221;-90
2022/08/17 07:00:40;;;;;;;;;24.75;22.25;;;;;21.24;100.00;100324.97;5092996;27;45269;-88
2022/08/17 07:03:53;;;;;;;;;28.00;27.00;;;;;21.33;100.00;100334.69;5108546;27;47179;-88
2022/08/17 07:06:21;;;;;;;;;28.00;25.50;;;;;21.28;100.00;100328.47;5090797;28;45701;-87
2022/08/17 07:08:58;;;;;;;;;29.75;29.75;;;;;21.29;100.00;100332.94;5108951;27;45127;-89
2022/08/17 07:11:37;;;;;;;;;28.00;27.00;;;;;21.38;100.00;100346.19;5092512;27;44927;-87
2022/08/17 07:14:22;;;;;;;;;28.25;26.75;;;;;21.36;100.00;100354.22;5092431;27;46025;-87
2022/08/17 07:16:52;;;;;;;;;27.50;26.25;;;;;21.37;100.00;100357.75;5091758;27;45205;-90
2022/08/17 07:19:22;;;;;;;;;27.50;25.50;;;;;21.41;100.00;100370.19;5091320;28;44996;-88
2022/08/17 07:22:07;;;;;;;;;24.75;22.50;;;;;21.42;100.00;100379.97;5092362;27;45091;-88
2022/08/17 07:24:46;;;;;;;;;27.50;27.50;;;;;21.35;100.00;100370.28;5108202;27;47634;-90
2022/08/17 07:27:14;;;;;;;;;30.25;28.75;;;;;21.43;100.00;100388.84;5106697;27;45551;-87
2022/08/17 07:29:49;;;;;;;;;24.00;23.25;;;;;21.23;100.00;100359.72;5107987;27;45145;-89
2022/08/17 07:32:21;;;;;;;;;28.50;26.25;;;;;21.35;100.00;100392.53;5092806;27;44999;-87
2022/08/17 07:35:09;;;;;;;;;25.75;23.75;;;;;21.39;100.00;100401.41;5090183;27;46366;-90
2022/08/17 07:37:39;;;;;;;;;24.75;23.50;;;;;21.39;100.00;100398.75;5107852;27;45661;-89
2022/08/17 07:40:16;;;;;;;;;24.00;22.25;;;;;21.40;100.00;100395.16;5108074;27;45064;-88
2022/08/17 07:42:58;;;;;;;;;24.50;23.25;;;;;21.31;100.00;100389.94;5092292;27;44937;-89
2022/08/17 07:48:19;;;;;;;;;27.75;26.25;;;;;21.14;100.00;100355.44;5092542;28;45712;-89
2022/08/17 07:50:44;;;;;;;;;24.25;23.50;;;;;21.33;100.00;100383.69;5092026;27;45009;-90
2022/08/17 07:53:18;;;;;;;;;22.50;22.00;;;;;21.38;100.00;100371.13;5092279;27;56284;-88
2022/08/17 07:55:44;;;;;;;;;23.25;21.25;;;;;21.30;100.00;100393.50;5090975;27;45373;-87
2022/08/17 07:58:16;;;;;;;;;24.00;22.25;;;;;21.09;100.00;100358.16;5107875;27;45430;-89
2022/08/17 08:00:41;;;;;;;;;23.75;23.75;;;;;21.23;100.00;100371.31;5092389;27;45021;-86
2022/08/17 08:03:28;;;;;;;;;23.75;20.75;;;;;21.49;100.00;100415.53;5107956;27;45265;-90
2022/08/17 08:05:58;;;;;;;;;22.25;21.75;;;;;21.46;100.00;100432.50;5090706;27;45423;-87
2022/08/17 08:08:36;;;;;;;;;27.50;25.00;;;;;21.39;100.00;100425.47;5092209;28;45195;-89
2022/08/17 08:11:07;;;;;;;;;26.50;25.25;;;;;21.41;100.00;100426.31;5090779;27;45039;-88
2022/08/17 08:13:34;;;;;;;;;20.75;19.75;;;;;21.29;100.00;100419.34;5091040;27;45066;-90
2022/08/17 08:16:18;;;;;;;;;20.25;20.00;;;;;21.35;100.00;100413.06;5107684;27;47249;-89
2022/08/17 08:18:47;;;;;;;;;20.25;19.50;;;;;21.49;100.00;100427.09;5107733;27;45505;-90
2022/08/17 08:21:35;;;;;;;;;26.25;22.50;;;;;21.58;100.00;100434.13;5107909;27;44988;-90
2022/08/17 08:24:19;;;;;;;;;26.50;25.50;;;;;21.61;100.00;100442.94;5106706;27;45100;-89
2022/08/17 08:27:07;;;;;;;;;25.25;23.50;;;;;21.48;100.00;100406.63;5089995;27;45398;-86
2022/08/17 08:29:51;;;;;;;;;28.00;25.75;;;;;21.63;100.00;100440.28;5091626;27;45598;-89
2022/08/17 08:32:35;;;;;;;;;22.75;22.00;;;;;21.59;100.00;100419.81;5091670;27;45099;-89
2022/08/17 08:35:25;;;;;;;;;23.75;21.25;;;;;21.44;100.00;100390.66;5091107;28;45033;-89
2022/08/17 08:38:13;;;;;;;;;21.75;21.25;;;;;21.66;100.00;100433.97;5106813;27;46541;-88
2022/08/17 08:41:20;;;;;;;;;25.25;24.00;;;;;21.73;100.00;100430.31;5088079;28;45657;-87
2022/08/17 08:43:48;;;;;;;;;26.50;26.00;;;;;21.80;100.00;100435.53;5079297;28;45145;-88
2022/08/17 08:46:50;;;;;;;;;24.00;24.00;;;;;21.87;100.00;100436.28;5107698;27;45002;-89
2022/08/17 08:49:58;;;;;;;;;25.25;22.50;;;;;21.80;100.00;100418.59;5074811;28;45915;-89
2022/08/17 08:52:51;;;;;;;;;24.25;22.75;;;;;21.77;100.00;100398.13;5072690;28;45642;-89
2022/08/17 08:55:51;;;;;;;;;24.00;22.00;;;;;22.00;100.00;100428.94;5071684;28;45150;-90
2022/08/17 08:58:23;;;;;;;;;22.00;21.25;;;;;21.85;100.00;100403.34;5073331;28;45103;-88
2022/08/17 09:00:53;;;;;;;;;26.75;25.50;;;;;21.87;100.00;100405.09;5074784;28;45266;-90
2022/08/17 09:03:23;;;;;;;;;27.25;24.00;;;;;22.00;100.00;100432.50;5074650;28;45223;-89
2022/08/17 09:05:56;;;;;;;;;25.75;23.50;;;;;21.85;100.00;100412.25;5074833;28;45176;-91
2022/08/17 09:08:39;;;;;;;;;23.00;22.50;;;;;21.99;100.00;100444.13;5073193;28;45087;-88
2022/08/17 09:11:55;;;;;;;;;27.50;26.50;;;;;22.01;100.00;100450.31;5073181;28;46426;-90
2022/08/17 09:14:47;;;;;;;;;27.75;25.75;;;;;22.03;100.00;100434.25;5051622;28;45513;-88
2022/08/17 09:17:18;;;;;;;;;23.50;22.50;;;;;21.88;100.00;100403.28;5052144;28;45059;-89
2022/08/17 09:19:51;;;;;;;;;25.00;22.50;;;;;21.99;100.00;100427.19;5069223;28;44957;-86
2022/08/17 09:22:38;;;;;;;;;25.00;24.75;;;;;21.98;100.00;100430.78;5072522;28;47048;-89
2022/08/17 09:25:12;;;;;;;;;27.25;24.75;;;;;22.05;99.95;100435.97;5073621;28;45093;-88
2022/08/17 09:27:59;;;;;;;;;28.75;27.25;;;;;22.01;100.00;100426.22;5073092;28;45283;-89
2022/08/17 09:30:35;;;;;;;;;26.75;24.75;;;;;22.06;99.57;100429.72;5073085;28;45322;-90
2022/08/17 09:33:05;;;;;;;;;32.00;30.00;;;;;21.98;100.00;100414.72;5073781;28;45883;-89
2022/08/17 09:35:45;;;;;;;;;27.00;24.00;;;;;22.10;99.69;100431.44;5073785;28;45462;-87
2022/08/17 09:38:21;;;;;;;;;27.25;26.25;;;;;21.90;99.03;100401.47;5092746;28;44984;-88
2022/08/17 09:40:58;;;;;;;;;24.00;23.25;;;;;22.05;99.32;100446.69;5109294;27;45096;-87
2022/08/17 09:43:37;;;;;;;;;28.25;27.75;;;;;21.89;100.00;100426.47;5094131;27;45331;-89
2022/08/17 09:46:15;;;;;;;;;23.25;22.75;;;;;21.84;100.00;100420.31;5094214;27;45376;-86
2022/08/17 09:48:54;;;;;;;;;26.50;25.50;;;;;21.77;100.00;100438.25;5094055;27;44988;-88
2022/08/17 09:51:34;;;;;;;;;27.50;27.25;;;;;21.94;100.00;100478.13;5094763;27;44940;-87
2022/08/17 09:54:01;;;;;;;;;30.75;29.25;;;;;21.95;100.00;100474.53;5093936;27;46362;-89
2022/08/17 09:56:56;;;;;;;;;30.50;29.50;;;;;21.88;100.00;100467.50;5091619;27;45251;-88
2022/08/17 09:59:52;;;;;;;;;26.50;26.25;;;;;21.89;100.00;100458.56;5094291;27;45268;-89
2022/08/17 10:03:04;;;;;;;;;25.25;23.75;;;;;21.98;100.00;100465.56;5092224;27;45174;-90
2022/08/17 10:05:40;;;;;;;;;26.75;26.00;;;;;22.12;100.00;100482.31;5071156;28;47692;-89
2022/08/17 10:08:11;;;;;;;;;27.50;26.25;;;;;21.94;100.00;100451.34;5054004;28;45524;-87
2022/08/17 10:11:06;;;;;;;;;29.00;27.25;;;;;22.22;100.00;100480.38;5075371;28;45056;-89
2022/08/17 10:13:55;;;;;;;;;29.75;29.50;;;;;22.29;100.00;100484.69;5109504;27;45245;-87
2022/08/17 10:16:36;;;;;;;;;31.25;30.25;;;;;22.32;99.94;100473.94;5109175;27;47515;-88
2022/08/17 10:19:12;;;;;;;;;31.50;30.50;;;;;22.25;99.85;100465.09;5093851;27;45171;-87
2022/08/17 10:27:18;;;;;;;;;27.00;25.25;;;;;22.26;99.14;100474.91;5091623;28;45095;-88
2022/08/17 10:29:59;;;;;;;;;29.00;28.00;;;;;22.25;99.52;100488.31;5092138;28;45084;-89
2022/08/17 10:32:53;;;;;;;;;29.50;28.50;;;;;22.24;98.79;100490.13;5092374;28;45107;-86
2022/08/17 10:35:25;;;;;;;;;29.25;27.75;;;;;22.25;99.07;100485.66;5106141;27;45056;-84
2022/08/17 10:38:09;;;;;;;;;27.25;25.75;;;;;22.21;99.39;100490.16;5092835;27;45292;-86
2022/08/17 10:40:49;;;;;;;;;35.50;33.25;;;;;22.00;99.16;100451.25;5089527;28;46029;-83
2022/08/17 10:43:28;;;;;;;;;27.75;26.50;;;;;22.20;99.32;100487.53;5091984;28;45292;-85
2022/08/17 10:46:01;;;;;;;;;27.00;25.75;;;;;22.24;99.29;100486.56;5109010;27;45391;-85
2022/08/17 10:48:36;;;;;;;;;33.00;31.00;;;;;22.27;99.46;100481.16;5093231;28;45431;-85
2022/08/17 10:51:07;;;;;;;;;41.25;35.75;;;;;22.32;99.00;100480.19;5088256;28;45384;-87
2022/08/17 10:53:39;;;;;;;;;32.00;30.50;;;;;22.36;98.88;100472.94;5091550;28;44931;-87
2022/08/17 10:56:10;;;;;;;;;26.75;24.25;;;;;22.44;98.72;100462.09;5089481;28;45122;-88
2022/08/17 10:58:55;;;;;;;;;32.50;30.75;;;;;22.52;98.20;100466.41;5092988;27;45804;-86
2022/08/17 11:01:42;;;;;;;;;29.75;28.75;;;;;22.66;97.16;100475.06;5091575;28;45126;-89
2022/08/17 11:04:16;;;;;;;;;34.25;32.00;;;;;22.80;96.96;100471.22;5093023;27;45080;-85
2022/08/17 11:07:11;;;;;;;;;29.75;29.25;;;;;22.89;97.96;100452.31;5091568;28;45348;-84
2022/08/17 11:10:07;;;;;;;;;30.00;29.25;;;;;23.17;96.82;100466.91;5055522;27;47557;-84
2022/08/17 11:12:38;;;;;;;;;30.25;28.50;;;;;23.37;95.87;100465.59;5106835;27;45582;-88
2022/08/17 11:15:16;;;;;;;;;30.50;29.00;;;;;23.68;94.69;100469.34;5092448;28;45093;-90
2022/08/17 11:17:41;;;;;;;;;29.50;29.00;;;;;24.00;94.94;100467.69;5092961;27;45291;-89
2022/08/17 11:20:22;;;;;;;;;34.75;30.25;;;;;24.27;93.05;100455.34;5092471;28;45978;-90
2022/08/17 11:23:03;;;;;;;;;37.00;33.25;;;;;24.65;92.80;100475.84;5108643;27;45187;-89
2022/08/17 11:25:42;;;;;;;;;34.75;32.00;;;;;24.72;90.90;100452.34;5105296;27;45298;-87
2022/08/17 11:28:18;;;;;;;;;32.50;30.00;;;;;24.90;89.93;100453.66;5092981;28;45107;-89
2022/08/17 11:30:51;;;;;;;;;31.25;30.00;;;;;24.84;88.94;100454.72;5093289;27;46161;-91
2022/08/17 11:33:28;;;;;;;;;37.00;32.25;;;;;24.90;88.75;100484.09;5092836;27;45230;-89
2022/08/17 11:36:19;;;;;;;;;29.75;28.00;;;;;24.85;88.75;100480.66;5092600;27;44987;-88
2022/08/17 11:39:24;;;;;;;;;28.75;28.25;;;;;24.88;88.48;100494.03;5091949;27;45035;-88
2022/08/17 11:42:10;;;;;;;;;30.00;28.50;;;;;24.86;87.53;100492.31;5089143;28;45158;-90
2022/08/17 11:45:01;;;;;;;;;32.00;30.50;;;;;24.78;87.52;100488.94;5092352;27;45153;-89
2022/08/17 11:53:41;;;;;;;;;30.00;28.50;;;;;24.17;88.11;100489.63;5091670;28;45472;-86
2022/08/17 11:56:08;;;;;;;;;31.00;29.50;;;;;24.05;89.50;100484.56;5091285;27;45015;-89
2022/08/17 11:58:39;;;;;;;;;26.25;24.25;;;;;23.88;89.04;100463.50;5107651;27;44993;-88
2022/08/17 12:01:06;;;;;;;;;30.00;28.50;;;;;23.94;89.42;100490.22;5091247;27;45018;-88